createdAt,value
2022-09-15T00:00:28.296Z,19.00
2022-09-15T00:02:54.968Z,19.00
2022-09-15T00:05:21.886Z,18.80
2022-09-15T00:07:48.461Z,18.80
2022-09-15T00:10:15.300Z,18.80
2022-09-15T00:12:41.965Z,18.90
2022-09-15T00:15:09.056Z,18.80
2022-09-15T00:17:35.665Z,18.90
2022-09-15T00:20:05.409Z,19.00
2022-09-15T00:22:32.009Z,19.00
2022-09-15T00:24:58.571Z,19.00
2022-09-15T00:27:25.228Z,19.00
2022-09-15T00:29:52.111Z,19.10
2022-09-15T00:32:18.680Z,19.00
2022-09-15T00:34:45.314Z,19.10
2022-09-15T00:37:11.951Z,19.00
2022-09-15T00:39:38.611Z,18.90
2022-09-15T00:42:05.415Z,18.90
2022-09-15T00:44:51.783Z,19.10
2022-09-15T00:47:21.647Z,19.00
2022-09-15T00:49:58.367Z,19.00
2022-09-15T00:52:35.016Z,19.00
2022-09-15T00:55:08.880Z,19.00
2022-09-15T00:57:46.070Z,18.90
2022-09-15T01:00:16.053Z,18.80
2022-09-15T01:02:44.309Z,18.90
2022-09-15T01:05:13.781Z,18.80
2022-09-15T01:07:52.434Z,18.80
2022-09-15T01:10:32.657Z,18.90
2022-09-15T01:13:03.062Z,18.90
2022-09-15T01:15:49.784Z,18.90
2022-09-15T01:18:41.572Z,18.90
2022-09-15T01:21:20.164Z,18.90
2022-09-15T01:24:28.100Z,18.90
2022-09-15T01:27:30.459Z,18.90
2022-09-15T01:30:14.468Z,19.00
2022-09-15T01:33:04.945Z,19.00
2022-09-15T01:35:44.483Z,19.00
2022-09-15T01:38:24.950Z,18.90
2022-09-15T01:41:15.233Z,19.00
2022-09-15T01:43:49.054Z,18.90
2022-09-15T01:46:19.055Z,18.70
2022-09-15T01:48:48.984Z,18.70
2022-09-15T01:51:16.736Z,18.70
2022-09-15T01:53:44.285Z,18.60
2022-09-15T01:56:12.105Z,18.50
2022-09-15T01:58:40.857Z,18.50
2022-09-15T02:01:40.541Z,18.60
2022-09-15T02:04:25.346Z,18.60
2022-09-15T02:07:13.782Z,18.70
2022-09-15T02:10:05.099Z,18.70
2022-09-15T02:12:50.583Z,18.70
2022-09-15T02:15:27.260Z,18.70
2022-09-15T02:17:55.544Z,18.60
2022-09-15T02:20:43.169Z,18.60
2022-09-15T02:23:18.789Z,18.70
2022-09-15T02:25:50.163Z,18.60
2022-09-15T02:28:20.460Z,18.60
2022-09-15T02:30:48.817Z,18.50
2022-09-15T02:33:21.124Z,18.50
2022-09-15T02:35:47.864Z,18.60
2022-09-15T02:38:15.057Z,18.50
2022-09-15T02:40:44.464Z,18.60
2022-09-15T02:43:14.643Z,18.60
2022-09-15T02:45:41.631Z,18.60
2022-09-15T02:48:11.633Z,18.50
2022-09-15T02:50:38.931Z,18.60
2022-09-15T02:53:05.700Z,18.60
2022-09-15T02:55:32.681Z,18.70
2022-09-15T02:57:59.599Z,18.70
2022-09-15T03:00:28.226Z,18.70
2022-09-15T03:02:56.023Z,18.70
2022-09-15T03:05:26.204Z,18.70
2022-09-15T03:07:53.424Z,18.70
2022-09-15T03:10:21.396Z,18.70
2022-09-15T03:12:53.238Z,18.70
2022-09-15T03:15:22.280Z,18.80
2022-09-15T03:17:50.078Z,18.70
2022-09-15T03:20:20.068Z,18.70
2022-09-15T03:22:46.891Z,18.70
2022-09-15T03:25:13.608Z,18.70
2022-09-15T03:27:40.267Z,18.70
2022-09-15T03:30:07.714Z,18.70
2022-09-15T03:32:34.516Z,18.70
2022-09-15T03:35:01.301Z,18.70
2022-09-15T03:37:28.335Z,18.70
2022-09-15T03:39:54.996Z,18.70
2022-09-15T03:42:21.705Z,18.70
2022-09-15T03:44:48.312Z,18.70
2022-09-15T03:47:14.921Z,18.60
2022-09-15T03:49:41.558Z,18.60
2022-09-15T03:52:08.156Z,18.70
2022-09-15T03:54:35.532Z,18.70
2022-09-15T03:57:03.243Z,18.70
2022-09-15T03:59:29.857Z,18.60
2022-09-15T04:01:56.549Z,18.60
2022-09-15T04:04:23.226Z,18.60
2022-09-15T04:06:49.840Z,18.60
2022-09-15T04:09:16.444Z,18.60
2022-09-15T04:11:43.020Z,18.60
2022-09-15T04:14:09.583Z,18.60
2022-09-15T04:16:36.371Z,18.50
2022-09-15T04:19:03.726Z,18.60
2022-09-15T04:21:31.664Z,18.60
2022-09-15T04:23:58.424Z,18.60
2022-09-15T04:26:30.029Z,18.60
2022-09-15T04:28:58.716Z,18.60
2022-09-15T04:31:28.434Z,18.70
2022-09-15T04:33:55.912Z,18.60
2022-09-15T04:36:24.908Z,18.50
2022-09-15T04:38:51.990Z,18.50
2022-09-15T04:41:19.331Z,18.50
2022-09-15T04:43:46.249Z,18.50
2022-09-15T04:46:14.031Z,18.40
2022-09-15T04:48:41.020Z,18.50
2022-09-15T04:51:12.299Z,18.50
2022-09-15T04:53:39.137Z,18.50
2022-09-15T04:56:11.133Z,18.40
2022-09-15T04:58:39.852Z,18.40
2022-09-15T05:01:18.930Z,18.40
2022-09-15T05:03:46.422Z,18.50
2022-09-15T05:06:16.060Z,18.40
2022-09-15T05:08:42.935Z,18.50
2022-09-15T05:11:12.054Z,18.40
2022-09-15T05:13:40.401Z,18.40
2022-09-15T05:16:18.814Z,18.40
2022-09-15T05:18:46.679Z,18.30
2022-09-15T05:21:15.556Z,18.30
2022-09-15T05:23:42.300Z,18.40
2022-09-15T05:26:12.798Z,18.50
2022-09-15T05:28:39.864Z,18.40
2022-09-15T05:31:12.433Z,18.50
2022-09-15T05:33:39.515Z,18.40
2022-09-15T05:36:07.214Z,18.40
2022-09-15T05:38:34.081Z,18.40
2022-09-15T05:41:18.161Z,18.40
2022-09-15T05:43:46.315Z,18.30
2022-09-15T05:46:13.785Z,18.30
2022-09-15T05:48:40.435Z,18.30
2022-09-15T05:51:07.496Z,18.20
2022-09-15T05:53:35.636Z,18.30
2022-09-15T05:56:07.988Z,18.30
2022-09-15T05:58:34.735Z,18.40
2022-09-15T06:01:22.305Z,18.40
2022-09-15T06:03:49.656Z,18.40
2022-09-15T06:06:16.409Z,18.40
2022-09-15T06:08:48.357Z,18.40
2022-09-15T06:11:20.791Z,18.30
2022-09-15T06:13:47.868Z,18.30
2022-09-15T06:16:21.024Z,18.20
2022-09-15T06:18:49.263Z,18.20
2022-09-15T06:21:19.173Z,18.30
2022-09-15T06:23:50.650Z,18.20
2022-09-15T06:26:18.856Z,18.20
2022-09-15T06:28:53.800Z,18.40
2022-09-15T06:31:21.115Z,18.30
2022-09-15T06:33:51.241Z,18.30
2022-09-15T06:36:19.879Z,18.40
2022-09-15T06:38:47.198Z,18.50
2022-09-15T06:41:14.167Z,18.50
2022-09-15T06:43:42.072Z,18.50
2022-09-15T06:46:14.347Z,18.50
2022-09-15T06:48:43.440Z,18.50
2022-09-15T06:51:13.192Z,18.50
2022-09-15T06:53:40.440Z,18.50
2022-09-15T06:56:12.598Z,18.50
2022-09-15T06:58:41.052Z,18.50
2022-09-15T07:01:13.349Z,18.50
2022-09-15T07:03:43.080Z,18.50
2022-09-15T07:06:11.777Z,18.50
2022-09-15T07:08:39.421Z,18.50
2022-09-15T07:11:06.641Z,18.50
2022-09-15T07:13:33.356Z,18.50
2022-09-15T07:16:03.580Z,18.50
2022-09-15T07:18:31.019Z,18.50
2022-09-15T07:21:03.178Z,18.50
2022-09-15T07:23:29.965Z,18.60
2022-09-15T07:26:17.620Z,18.70
2022-09-15T07:28:46.615Z,18.70
2022-09-15T07:31:16.290Z,18.70
2022-09-15T07:33:43.214Z,18.70
2022-09-15T07:36:10.057Z,18.60
2022-09-15T07:38:41.460Z,18.50
2022-09-15T07:41:10.885Z,18.60
2022-09-15T07:43:38.097Z,18.40
2022-09-15T07:46:05.733Z,18.20
2022-09-15T07:48:32.781Z,18.30
2022-09-15T07:51:02.099Z,18.30
2022-09-15T07:53:30.205Z,18.40
2022-09-15T07:55:57.151Z,18.40
2022-09-15T07:58:24.748Z,18.30
2022-09-15T08:00:52.104Z,18.20
2022-09-15T08:03:18.869Z,18.30
2022-09-15T08:05:46.231Z,18.40
2022-09-15T08:08:13.324Z,18.50
2022-09-15T08:10:41.144Z,18.50
2022-09-15T08:13:08.403Z,18.50
2022-09-15T08:15:38.694Z,18.50
2022-09-15T08:18:06.278Z,18.50
2022-09-15T08:20:33.505Z,18.50
2022-09-15T08:23:00.213Z,18.60
2022-09-15T08:25:26.956Z,18.70
2022-09-15T08:27:54.952Z,18.70
2022-09-15T08:30:22.214Z,18.70
2022-09-15T08:32:49.615Z,18.60
2022-09-15T08:35:17.287Z,18.70
2022-09-15T08:37:44.191Z,18.60
2022-09-15T08:40:19.110Z,18.70
2022-09-15T08:42:48.143Z,18.70
2022-09-15T08:45:41.993Z,18.70
2022-09-15T08:48:15.565Z,18.70
2022-09-15T08:50:47.435Z,18.80
2022-09-15T08:53:18.649Z,18.60
2022-09-15T08:55:56.135Z,18.60
2022-09-15T08:58:31.768Z,18.60
2022-09-15T09:01:22.075Z,18.60
2022-09-15T09:04:13.736Z,18.70
2022-09-15T09:06:57.863Z,18.90
2022-09-15T09:09:33.088Z,19.00
2022-09-15T09:12:08.961Z,19.10
2022-09-15T09:15:02.921Z,19.00
2022-09-15T09:17:57.503Z,19.00
2022-09-15T09:20:43.002Z,19.10
2022-09-15T09:23:15.036Z,19.00
2022-09-15T09:25:43.351Z,19.00
2022-09-15T09:28:29.980Z,18.90
2022-09-15T09:31:08.235Z,19.00
2022-09-15T09:33:47.566Z,19.10
2022-09-15T09:36:14.657Z,19.00
2022-09-15T09:38:43.686Z,19.00
2022-09-15T09:41:15.266Z,19.10
2022-09-15T09:43:49.398Z,19.10
2022-09-15T09:46:18.053Z,19.20
2022-09-15T09:48:52.171Z,19.30
2022-09-15T09:51:52.092Z,19.50
2022-09-15T09:54:21.259Z,19.20
2022-09-15T09:56:50.263Z,18.90
2022-09-15T09:59:40.651Z,18.80
2022-09-15T10:02:17.740Z,18.70
2022-09-15T10:04:49.637Z,18.80
2022-09-15T10:07:19.954Z,18.80
2022-09-15T10:10:05.024Z,18.80
2022-09-15T10:12:38.232Z,19.00
2022-09-15T10:15:19.341Z,18.90
2022-09-15T10:17:48.273Z,18.90
2022-09-15T10:20:32.151Z,19.10
2022-09-15T10:23:04.521Z,19.20
2022-09-15T10:25:55.485Z,19.30
2022-09-15T10:28:26.088Z,19.40
2022-09-15T10:31:06.377Z,19.40
2022-09-15T10:33:47.718Z,19.40
2022-09-15T10:36:21.264Z,19.40
2022-09-15T10:39:13.538Z,19.40
2022-09-15T10:42:05.720Z,19.30
2022-09-15T10:44:59.405Z,19.20
2022-09-15T10:48:03.183Z,19.40
2022-09-15T10:50:40.393Z,19.50
2022-09-15T10:53:24.668Z,19.50
2022-09-15T10:56:05.284Z,19.70
2022-09-15T10:58:56.581Z,19.80
2022-09-15T11:01:26.205Z,19.80
2022-09-15T11:04:02.903Z,19.80
2022-09-15T11:06:52.522Z,19.80
2022-09-15T11:09:38.558Z,19.70
2022-09-15T11:12:05.094Z,19.80
2022-09-15T11:14:37.468Z,19.80
2022-09-15T11:17:14.442Z,19.70
2022-09-15T11:19:46.534Z,19.90
2022-09-15T11:22:22.777Z,19.90
2022-09-15T11:25:00.412Z,19.90
2022-09-15T11:27:41.448Z,20.00
2022-09-15T11:30:18.821Z,20.00
2022-09-15T11:32:48.147Z,20.20
2022-09-15T11:35:39.714Z,20.40
2022-09-15T11:38:31.232Z,20.60
2022-09-15T11:41:15.519Z,20.40
2022-09-15T11:44:16.759Z,20.20
2022-09-15T11:46:59.554Z,20.00
2022-09-15T11:49:45.056Z,19.90
2022-09-15T11:52:24.667Z,19.70
2022-09-15T11:55:07.061Z,19.70
2022-09-15T11:57:43.914Z,19.70
2022-09-15T12:00:13.950Z,19.80
2022-09-15T12:02:56.578Z,19.90
2022-09-15T12:06:00.654Z,20.00
2022-09-15T12:08:42.155Z,20.10
2022-09-15T12:11:18.701Z,20.10
2022-09-15T12:13:46.415Z,20.10
2022-09-15T12:16:14.205Z,20.20
2022-09-15T12:18:50.953Z,20.10
2022-09-15T12:21:31.181Z,20.10
2022-09-15T12:24:00.032Z,20.10
2022-09-15T12:26:27.570Z,20.10
2022-09-15T12:28:58.536Z,20.10
2022-09-15T12:31:29.884Z,20.10
2022-09-15T12:34:36.597Z,20.00
2022-09-15T12:37:14.592Z,20.00
2022-09-15T12:39:46.133Z,20.10
2022-09-15T12:42:18.792Z,20.10
2022-09-15T12:44:47.817Z,20.10
2022-09-15T12:47:34.951Z,20.10
2022-09-15T12:50:15.797Z,20.10
2022-09-15T12:52:54.275Z,20.20
2022-09-15T12:55:46.843Z,20.20
2022-09-15T12:58:21.145Z,20.20
2022-09-15T13:01:14.272Z,20.30
2022-09-15T13:06:21.754Z,20.50
2022-09-15T13:09:27.731Z,20.60
2022-09-15T13:11:56.193Z,20.60
2022-09-15T13:14:44.796Z,20.60
2022-09-15T13:17:21.122Z,20.50
2022-09-15T13:19:51.343Z,20.50
2022-09-15T13:22:27.369Z,20.50
2022-09-15T13:25:02.275Z,20.40
2022-09-15T13:27:38.091Z,20.40
2022-09-15T13:30:26.444Z,20.40
2022-09-15T13:33:16.800Z,20.40
2022-09-15T13:35:52.450Z,20.60
2022-09-15T13:38:31.924Z,20.60
2022-09-15T13:41:18.337Z,20.40
2022-09-15T13:43:53.530Z,20.30
2022-09-15T13:46:57.891Z,20.20
2022-09-15T13:49:36.612Z,20.10
2022-09-15T13:52:14.284Z,20.10
2022-09-15T13:55:14.761Z,20.00
2022-09-15T14:00:54.123Z,19.90
2022-09-15T14:03:46.788Z,19.90
2022-09-15T14:06:22.409Z,19.90
2022-09-15T14:08:53.962Z,19.90
2022-09-15T14:11:25.514Z,19.90
2022-09-15T14:13:53.529Z,19.90
2022-09-15T14:16:39.125Z,20.00
2022-09-15T14:19:31.118Z,20.00
2022-09-15T14:21:58.787Z,20.00
2022-09-15T14:24:29.149Z,20.10
2022-09-15T14:26:58.804Z,20.10
2022-09-15T14:29:26.800Z,20.20
2022-09-15T14:31:58.894Z,20.10
2022-09-15T14:34:29.124Z,20.10
2022-09-15T14:37:07.556Z,20.10
2022-09-15T14:39:37.502Z,20.10
2022-09-15T14:42:22.364Z,20.10
2022-09-15T14:47:39.127Z,20.10
2022-09-15T14:50:13.159Z,20.10
2022-09-15T14:53:01.828Z,20.10
2022-09-15T14:55:40.355Z,20.10
2022-09-15T14:58:14.779Z,20.20
2022-09-15T15:00:55.557Z,20.20
2022-09-15T15:03:37.009Z,20.10
2022-09-15T15:09:18.078Z,20.10
2022-09-15T15:11:45.366Z,20.00
2022-09-15T15:14:13.204Z,20.00
2022-09-15T15:16:51.365Z,19.90
2022-09-15T15:19:34.423Z,19.80
2022-09-15T15:22:27.342Z,19.80
2022-09-15T15:24:54.489Z,19.70
2022-09-15T15:27:33.348Z,19.70
2022-09-15T15:30:29.468Z,19.60
2022-09-15T15:33:02.456Z,19.60
2022-09-15T15:35:31.031Z,19.60
2022-09-15T15:38:19.454Z,19.60
2022-09-15T15:40:46.835Z,19.60
2022-09-15T15:43:27.112Z,19.60
2022-09-15T15:45:58.311Z,19.60
2022-09-15T15:48:34.002Z,19.60
2022-09-15T15:51:05.408Z,19.60
2022-09-15T15:53:32.168Z,19.60
2022-09-15T15:56:00.125Z,19.60
2022-09-15T15:58:27.336Z,19.60
2022-09-15T16:00:56.418Z,19.70
2022-09-15T16:03:24.526Z,19.70
2022-09-15T16:05:54.381Z,19.60
2022-09-15T16:08:33.084Z,19.60
2022-09-15T16:11:02.069Z,19.60
2022-09-15T16:13:29.452Z,19.60
2022-09-15T16:15:59.940Z,19.60
2022-09-15T16:18:28.883Z,19.70
2022-09-15T16:20:55.545Z,19.60
2022-09-15T16:23:23.225Z,19.60
2022-09-15T16:25:59.190Z,19.60
2022-09-15T16:28:26.308Z,19.60
2022-09-15T16:30:52.950Z,19.60
2022-09-15T16:33:22.956Z,19.70
2022-09-15T16:35:54.913Z,19.60
2022-09-15T16:38:25.754Z,19.60
2022-09-15T16:40:52.679Z,19.60
2022-09-15T16:43:25.885Z,19.60
2022-09-15T16:45:53.017Z,19.60
2022-09-15T16:48:20.086Z,19.70
2022-09-15T16:51:09.522Z,19.60
2022-09-15T16:53:34.690Z,19.60
2022-09-15T16:56:01.507Z,19.70
2022-09-15T16:58:28.402Z,19.70
2022-09-15T17:00:55.896Z,19.70
2022-09-15T17:03:24.943Z,19.70
2022-09-15T17:05:53.583Z,19.60
2022-09-15T17:08:23.664Z,19.60
2022-09-15T17:10:51.032Z,19.60
2022-09-15T17:13:20.499Z,19.60
2022-09-15T17:15:47.360Z,19.50
2022-09-15T17:18:15.396Z,19.50
2022-09-15T17:20:46.408Z,19.60
2022-09-15T17:23:23.803Z,19.50
2022-09-15T17:25:53.271Z,19.50
2022-09-15T17:28:22.430Z,19.40
2022-09-15T17:30:58.654Z,19.40
2022-09-15T17:33:26.841Z,19.40
2022-09-15T17:35:53.851Z,19.40
2022-09-15T17:38:21.846Z,19.50
2022-09-15T17:40:49.899Z,19.30
2022-09-15T17:43:22.324Z,19.30
2022-09-15T17:45:49.975Z,19.40
2022-09-15T17:48:17.069Z,19.40
2022-09-15T17:50:45.218Z,19.30
2022-09-15T17:53:16.827Z,19.30
2022-09-15T17:55:43.612Z,19.30
2022-09-15T17:58:10.658Z,19.30
2022-09-15T18:00:39.508Z,19.30
2022-09-15T18:03:27.689Z,19.30
2022-09-15T18:05:59.373Z,19.30
2022-09-15T18:08:27.319Z,19.30
2022-09-15T18:10:54.359Z,19.20
2022-09-15T18:13:24.204Z,19.30
2022-09-15T18:15:51.172Z,19.20
2022-09-15T18:18:21.036Z,19.20
2022-09-15T18:20:49.649Z,19.20
2022-09-15T18:23:21.797Z,19.20
2022-09-15T18:25:49.420Z,19.20
2022-09-15T18:28:16.864Z,19.20
2022-09-15T18:30:46.464Z,19.20
2022-09-15T18:33:16.484Z,19.10
2022-09-15T18:35:43.477Z,19.10
2022-09-15T18:38:11.135Z,19.10
2022-09-15T18:40:38.348Z,19.00
2022-09-15T18:43:05.499Z,19.00
2022-09-15T18:45:32.075Z,19.00
2022-09-15T18:47:58.686Z,19.00
2022-09-15T18:50:25.552Z,19.00
2022-09-15T18:52:52.970Z,19.00
2022-09-15T18:55:21.462Z,18.90
2022-09-15T18:57:48.863Z,19.00
2022-09-15T19:00:19.233Z,18.90
2022-09-15T19:02:47.125Z,19.00
2022-09-15T19:05:17.437Z,18.90
2022-09-15T19:07:45.344Z,19.00
2022-09-15T19:10:14.297Z,19.00
2022-09-15T19:12:41.055Z,19.00
2022-09-15T19:15:11.063Z,19.00
2022-09-15T19:17:38.637Z,18.90
2022-09-15T19:20:06.984Z,19.00
2022-09-15T19:22:34.189Z,18.90
2022-09-15T19:25:00.988Z,18.80
2022-09-15T19:27:27.662Z,18.60
2022-09-15T19:29:54.255Z,18.60
2022-09-15T19:32:22.032Z,18.60
2022-09-15T19:34:49.075Z,18.60
2022-09-15T19:37:19.670Z,18.60
2022-09-15T19:39:47.419Z,18.60
2022-09-15T19:44:42.286Z,18.40
2022-09-15T19:47:09.315Z,18.40
2022-09-15T19:49:35.989Z,18.50
2022-09-15T19:52:02.699Z,18.40
2022-09-15T19:54:30.668Z,18.40
2022-09-15T19:56:57.893Z,18.50
2022-09-15T19:59:28.745Z,18.50
2022-09-15T20:01:58.045Z,18.50
2022-09-15T20:04:24.799Z,18.40
2022-09-15T20:06:51.715Z,18.40
2022-09-15T20:09:18.427Z,18.30
2022-09-15T20:11:45.017Z,18.20
2022-09-15T20:14:11.916Z,18.30
2022-09-15T20:16:38.538Z,18.20
2022-09-15T20:19:06.039Z,18.20
2022-09-15T20:21:51.589Z,18.20
2022-09-15T20:24:20.204Z,18.00
2022-09-15T20:26:47.199Z,18.10
2022-09-15T20:29:14.336Z,18.10
2022-09-15T20:31:41.439Z,18.10
2022-09-15T20:34:08.142Z,18.10
2022-09-15T20:36:37.439Z,18.10
2022-09-15T20:39:08.667Z,17.90
2022-09-15T20:41:35.637Z,17.90
2022-09-15T20:44:02.516Z,18.00
2022-09-15T20:46:29.336Z,18.00
2022-09-15T20:48:55.949Z,17.90
2022-09-15T20:51:29.447Z,17.70
2022-09-15T20:53:57.494Z,17.80
2022-09-15T20:56:26.296Z,17.80
2022-09-15T20:58:54.871Z,17.90
2022-09-15T21:01:24.837Z,17.90
2022-09-15T21:03:52.106Z,17.90
2022-09-15T21:06:21.554Z,17.80
2022-09-15T21:08:49.207Z,17.80
2022-09-15T21:11:17.507Z,17.90
2022-09-15T21:13:44.950Z,17.90
2022-09-15T21:16:15.109Z,17.90
2022-09-15T21:18:43.334Z,17.90
2022-09-15T21:21:30.245Z,17.90
2022-09-15T21:24:03.806Z,17.90
2022-09-15T21:26:33.370Z,17.60
2022-09-15T21:29:00.373Z,17.50
2022-09-15T21:31:32.513Z,17.50
2022-09-15T21:33:59.634Z,17.40
2022-09-15T21:36:29.667Z,17.40
2022-09-15T21:38:58.115Z,17.40
2022-09-15T21:41:29.014Z,17.30
2022-09-15T21:43:57.959Z,17.30
2022-09-15T21:46:27.218Z,17.50
2022-09-15T21:48:56.174Z,17.50
2022-09-15T21:51:25.169Z,17.50
2022-09-15T21:53:56.319Z,17.60
2022-09-15T21:56:24.038Z,17.70
2022-09-15T21:58:50.796Z,17.60
2022-09-15T22:01:21.612Z,17.50
2022-09-15T22:03:55.673Z,17.60
2022-09-15T22:06:30.052Z,17.70
2022-09-15T22:08:56.836Z,17.70
2022-09-15T22:11:23.955Z,17.70
2022-09-15T22:13:50.588Z,17.70
2022-09-15T22:16:20.396Z,17.60
2022-09-15T22:18:47.521Z,17.70
2022-09-15T22:21:25.732Z,17.70
2022-09-15T22:23:55.230Z,17.80
2022-09-15T22:26:25.576Z,17.50
2022-09-15T22:28:53.132Z,17.50
2022-09-15T22:31:21.290Z,17.50
2022-09-15T22:33:47.962Z,17.60
2022-09-15T22:36:20.129Z,17.60
2022-09-15T22:38:47.414Z,17.60
2022-09-15T22:41:16.772Z,17.50
2022-09-15T22:43:45.712Z,17.70
2022-09-15T22:46:12.375Z,17.60
2022-09-15T22:48:43.374Z,17.50
2022-09-15T22:51:10.929Z,17.40
2022-09-15T22:53:37.568Z,17.50
2022-09-15T22:56:10.682Z,17.40
2022-09-15T22:58:37.640Z,17.40
2022-09-15T23:01:06.163Z,17.40
2022-09-15T23:03:33.164Z,17.40
2022-09-15T23:06:00.428Z,17.50
2022-09-15T23:08:27.401Z,17.50
2022-09-15T23:11:01.216Z,17.50
2022-09-15T23:13:27.776Z,17.60
2022-09-15T23:15:54.408Z,17.60
2022-09-15T23:18:21.019Z,17.60
2022-09-15T23:20:47.573Z,17.50
2022-09-15T23:23:14.156Z,17.50
2022-09-15T23:25:40.732Z,17.60
2022-09-15T23:28:07.310Z,17.60
2022-09-15T23:30:34.471Z,17.60
2022-09-15T23:33:01.081Z,17.50
2022-09-15T23:35:27.809Z,17.50
2022-09-15T23:37:54.370Z,17.40
2022-09-15T23:40:21.511Z,17.30
2022-09-15T23:42:48.510Z,17.20
2022-09-15T23:45:15.473Z,17.20
2022-09-15T23:47:42.060Z,17.00
2022-09-15T23:50:09.078Z,17.00
2022-09-15T23:52:35.825Z,17.00
2022-09-15T23:55:02.392Z,17.00
2022-09-15T23:57:28.970Z,17.00
2022-09-15T23:59:55.547Z,16.90
